Ashern, Canada
Current Conditions -  °F | °C
As of 5:00 AM on Thursday 23 Oct 2014 (Local Time) from CYDN Reporting Station
Overcast Overcast  
Wind Chill: 11°   Ceiling: 1900
Heat Index: 11°   Visibility: 9mi
Dew Point:   Wind: 9mph
Humidity: 82%   Direction: 270°W
Pressure: 29.7"   Gusts: NA
Location:  51.18°N, 98.33°W
Report Text: CYDN 231000Z AUTO 27008KT 9SM OVC019 11/08 A2970 RMK SLP061 DENSITY ALT 1000FT
Loading
Personal Weather Stations






























Interactive Weather Map
Tropical Storm Tracking
New forecast layout! Learn more

10-Day Weather Forecast

Advertisements
Track Severe Weather on mobile